METAR (acronimo di METeorological Air Report) è un messaggio meteo emesso nella maggior parte dei casi in ambito aeroportuale

LIPF - Ferrara, It
Distanza dalla Stazione: 8 km
Ultimo Aggiornamento: Venerdì 20 Settembre 2019 14:55 CEST
Qualche Nuvola
Qualche Nuvola
 Wind from varies
Vento: variabile 0 km/h
Temperatura: 20°C
Punto di Rugiada: 8°C
Umidità: 46%
Barometro: 1025 hPa
Nuvole: Qualche Nuvola
Visibilità: 10 km
Nuvole nel Dettaglio: Qualche Nuvola 762 m
2019/09/20 12:55 LIPF 201255Z /////KT 9999 FEW025 20/08 Q1025
LIPE - Bologna Borgo Panigale, It
Distanza dalla Stazione: 46 km
Ultimo Aggiornamento: Venerdì 20 Settembre 2019 15:20 CEST
Parzialmente Nuvoloso
Parzialmente Nuvoloso
 Wind from varies
Vento: variabile 6 km/h
Temperatura: 21°C
Punto di Rugiada: 11°C
Umidità: 53%
Barometro: 1024 hPa
Nuvole: Parzialmente Nuvoloso
Visibilità: 10 km
Nuvole nel Dettaglio: Parzialmente Nuvoloso 1372 m
2019/09/20 13:20 LIPE 201320Z VRB03KT 9999 SCT045 21/11 Q1024
LIMF - Torino Caselle, It
Distanza dalla Stazione: 320 km
Ultimo Aggiornamento: Venerdì 20 Settembre 2019 15:20 CEST
Prevalentemente Nuvoloso
Prevalentemente Nuvoloso
 Wind from varies
Vento: variabile 4 km/h
Temperatura: 19°C
Punto di Rugiada: 9°C
Umidità: 52%
Barometro: 1025 hPa
Nuvole: Prevalentemente Nuvoloso
Visibilità: 10 km
Nuvole nel Dettaglio: Prevalentemente Nuvoloso 1372 m
2019/09/20 13:20 LIMF 201320Z VRB02KT 9999 BKN045 19/09 Q1025
 
LIML - Milano Malpensa, It
Distanza dalla Stazione: 249 km
Ultimo Aggiornamento: Giovedì 19 Settembre 2019 10:50 CEST
Dati non Recenti
Parzialmente Nuvoloso
Parzialmente Nuvoloso
 Wind from varies
Vento: variabile 6 km/h
Temperatura: 16°C
Punto di Rugiada: 14°C
Umidità: 88%
Barometro: 1020 hPa
Nuvole: Parzialmente Nuvoloso
Visibilità: 10 km
Nuvole nel Dettaglio: Parzialmente Nuvoloso 305 m
Parzialmente Nuvoloso 1829 m
2019/09/19 08:50 LIML 190850Z VRB03KT 150V250 9999 SCT010 SCT060 16/14 Q1020 NOSIG
LIME - Bergamo Orio al Serio, It
Distanza dalla Stazione: 181 km
Ultimo Aggiornamento: Venerdì 20 Settembre 2019 15:20 CEST
Parzialmente Nuvoloso
Parzialmente Nuvoloso
 Wind from varies
Vento: variabile 7 km/h
Temperatura: 19°C
Punto di Rugiada: 6°C
Umidità: 43%
Barometro: 1025 hPa
Nuvole: Parzialmente Nuvoloso
Visibilità: 10 km
Nuvole nel Dettaglio: Parzialmente Nuvoloso 2134 m
2019/09/20 13:20 LIME 201320Z VRB04KT 9999 SCT070 19/06 Q1025 NOSIG
LIPZ - Venezia Tessera, It
Distanza dalla Stazione: 93 km
Ultimo Aggiornamento: Venerdì 20 Settembre 2019 15:20 CEST
Sereno
Sereno
 Wind from Est
Vento: Est 17 km/h
Temperatura: 20°C
Punto di Rugiada: 3°C
Umidità: 33%
Barometro: 1025 hPa
Condizioni: Sereno
Visibilità: superiore a 10 km
2019/09/20 13:20 LIPZ 201320Z 08009KT CAVOK 20/03 Q1025 NOSIG
 
LIVT - Trieste, It
Distanza dalla Stazione: 179 km
Ultimo Aggiornamento: Venerdì 20 Settembre 2019 14:55 CEST
Sereno
Sereno
 Wind from Nord-Est
Vento: Nord-Est 11 km/h
Temperatura: 20°C
Punto di Rugiada: 4°C
Umidità: 35%
Barometro: 1025 hPa
Condizioni: Sereno
Visibilità: superiore a 10 km
2019/09/20 12:55 LIVT 201255Z 05006KT CAVOK 20/04 Q1025 RMK BKN SCT080 SCT200 QUK 2 QUL 1 NE VIS MAR 20 KM VIS MIN 9999
LIMJ - Genova, It
Distanza dalla Stazione: 229 km
Ultimo Aggiornamento: Venerdì 20 Settembre 2019 15:20 CEST
Qualche Nuvola
Qualche Nuvola
 Wind from Nord
Vento: Nord 20 km/h, Raffica: 41 km/h
Temperatura: 25°C
Punto di Rugiada: 12°C
Umidità: 44%
Barometro: 1022 hPa
Nuvole: Qualche Nuvola
Visibilità: 10 km
Nuvole nel Dettaglio: Qualche Nuvola 1219 m
2019/09/20 13:20 LIMJ 201320Z 35011G22KT 310V020 9999 FEW040 25/12 Q1022
LIRQ - Firenze Amerigo Vespucci, It
Distanza dalla Stazione: 119 km
Ultimo Aggiornamento: Venerdì 20 Settembre 2019 15:20 CEST
Sereno
Sereno
 Wind from Nord-Nord-Est
Vento: Nord-Nord-Est 22 km/h
Temperatura: 25°C
Punto di Rugiada: 9°C
Umidità: 36%
Barometro: 1022 hPa
Condizioni: Sereno
Visibilità: superiore a 10 km
2019/09/20 13:20 LIRQ 201320Z 02012KT CAVOK 25/09 Q1022
 
LIPY - Ancona, It
Distanza dalla Stazione: 189 km
Ultimo Aggiornamento: Venerdì 20 Settembre 2019 14:50 CEST
Sereno
Sereno
 Wind from Nord
Vento: Nord 13 km/h
Temperatura: 21°C
Punto di Rugiada: 9°C
Umidità: 46%
Barometro: 1024 hPa
Condizioni: Sereno
Visibilità: superiore a 10 km
2019/09/20 12:50 LIPY 201250Z 36007KT 320V050 CAVOK 21/09 Q1024
LIBP - Pescara, It
Distanza dalla Stazione: 333 km
Ultimo Aggiornamento: Venerdì 20 Settembre 2019 14:50 CEST
Sereno
Sereno
 Wind from Nord-Nord-Est
Vento: Nord-Nord-Est 15 km/h
Temperatura: 21°C
Punto di Rugiada: 9°C
Umidità: 46%
Barometro: 1023 hPa
Condizioni: Sereno
Visibilità: superiore a 10 km
2019/09/20 12:50 LIBP 201250Z 03008KT 360V060 CAVOK 21/09 Q1023
LIRF - Roma-Fiumicino, It
Distanza dalla Stazione: 334 km
Ultimo Aggiornamento: Venerdì 20 Settembre 2019 15:20 CEST
Sereno
Sereno
 Wind from Ovest-Sud-Ovest
Vento: Ovest-Sud-Ovest 24 km/h
Temperatura: 26°C
Punto di Rugiada: 18°C
Umidità: 61%
Barometro: 1019 hPa
Condizioni: Sereno
Visibilità: superiore a 10 km
2019/09/20 13:20 LIRF 201320Z 25013KT CAVOK 26/18 Q1019 NOSIG
 
LIRN - Napoli Capodichino, It
Distanza dalla Stazione: 494 km
Ultimo Aggiornamento: Venerdì 20 Settembre 2019 15:20 CEST
Sereno
Sereno
 Wind from Nord-Est
Vento: Nord-Est 11 km/h
Temperatura: 26°C
Punto di Rugiada: 8°C
Umidità: 32%
Barometro: 1020 hPa
Condizioni: Sereno
Visibilità: superiore a 10 km
2019/09/20 13:20 LIRN 201320Z 05006KT 350V140 CAVOK 26/08 Q1020 NOSIG
LIBD - Bari Palese, It
Distanza dalla Stazione: 594 km
Ultimo Aggiornamento: Venerdì 20 Settembre 2019 15:20 CEST
Qualche Nuvola
Qualche Nuvola
 Wind from Nord
Vento: Nord 26 km/h
Temperatura: 22°C
Punto di Rugiada: 10°C
Umidità: 47%
Barometro: 1020 hPa
Nuvole: Qualche Nuvola
Visibilità: 10 km
Nuvole nel Dettaglio: Qualche Nuvola 610 m
2019/09/20 13:20 LIBD 201320Z 36014KT 9999 FEW020 22/10 Q1020
LIBG - Taranto Grottaglie, It
Distanza dalla Stazione: 670 km
Ultimo Aggiornamento: Venerdì 20 Settembre 2019 14:50 CEST
Sereno
Sereno
 Wind from Nord
Vento: Nord 22 km/h
Temperatura: 23°C
Punto di Rugiada: 11°C
Umidità: 47%
Barometro: 1019 hPa
Condizioni: Sereno
Visibilità: superiore a 10 km
2019/09/20 12:50 LIBG 201250Z 35012KT CAVOK 23/11 Q1019
 
LICR - Reggio Calabria, It
Distanza dalla Stazione: 819 km
Ultimo Aggiornamento: Venerdì 20 Settembre 2019 14:50 CEST
Qualche Nuvola
Qualche Nuvola
 Wind from Ovest-Sud-Ovest
Vento: Ovest-Sud-Ovest 15 km/h
Temperatura: 28°C
Heat Index: 28°C
Punto di Rugiada: 17°C
Umidità: 51%
Barometro: 1017 hPa
Nuvole: Qualche Nuvola
Visibilità: 10 km
Nuvole nel Dettaglio: Qualche Nuvola 1219 m
2019/09/20 12:50 LICR 201250Z 24008KT 210V270 9999 FEW040 28/17 Q1017
LICJ - Palermo Punta Raisi, It
Distanza dalla Stazione: 762 km
Ultimo Aggiornamento: Venerdì 20 Settembre 2019 15:20 CEST
Qualche Nuvola
Qualche Nuvola
 Wind from Est-Nord-Est
Vento: Est-Nord-Est 31 km/h
Temperatura: 27°C
Heat Index: 29°C
Punto di Rugiada: 22°C
Umidità: 74%
Barometro: 1017 hPa
Nuvole: Qualche Nuvola
Visibilità: 10 km
Nuvole nel Dettaglio: Qualche Nuvola 762 m
2019/09/20 13:20 LICJ 201320Z 06017KT 9999 FEW025 27/22 Q1017
LICC - Catania Fontanarossa, It
Distanza dalla Stazione: 866 km
Ultimo Aggiornamento: Venerdì 20 Settembre 2019 15:20 CEST
Pioggia Leggera, Prevalentemente Nuvoloso
Pioggia Leggera, Prevalentemente Nuvoloso
 Wind from Est
Vento: Est 13 km/h
Temperatura: 24°C
Punto di Rugiada: 21°C
Umidità: 83%
Barometro: 1019 hPa
Condizioni: Pioggia Leggera
Nuvole: Prevalentemente Nuvoloso
Visibilità: 8 km
Nuvole nel Dettaglio: Prevalentemente Nuvoloso 762 m
2019/09/20 13:20 LICC 201320Z 09007KT 050V130 8000 -RA BKN025 24/21 Q1019
 
LIEE - Cagliari Elmas, It
Distanza dalla Stazione: 655 km
Ultimo Aggiornamento: Venerdì 20 Settembre 2019 15:20 CEST
Nearby thunderstorm, Parzialmente Nuvoloso
Nearby thunderstorm, Parzialmente Nuvoloso
 Wind from Sud-Sud-Est
Vento: Sud-Sud-Est 15 km/h
Temperatura: 28°C
Heat Index: 29°C
Punto di Rugiada: 20°C
Umidità: 62%
Barometro: 1017 hPa
Condizioni: Nearby Thunderstorm
Nuvole: Parzialmente Nuvoloso
Visibilità: 10 km
Nuvole nel Dettaglio: Qualche Nuvola 914 m
Parzialmente Nuvoloso 1067 m
2019/09/20 13:20 LIEE 201320Z 16008KT 9999 VCTS FEW030CB SCT035 28/20 Q1017
LIEO - Olbia, It
Distanza dalla Stazione: 463 km
Ultimo Aggiornamento: Venerdì 20 Settembre 2019 15:20 CEST
Qualche Nuvola
Qualche Nuvola
 Wind from Nord-Est
Vento: Nord-Est 19 km/h
Temperatura: 25°C
Punto di Rugiada: 16°C
Umidità: 57%
Barometro: 1020 hPa
Nuvole: Qualche Nuvola
Visibilità: 10 km
Nuvole nel Dettaglio: Qualche Nuvola 914 m
2019/09/20 13:20 LIEO 201320Z 04010KT 360V070 9999 FEW030 25/16 Q1020
LICG - Pantelleria, It
Distanza dalla Stazione: 893 km
Ultimo Aggiornamento: Venerdì 20 Settembre 2019 14:50 CEST
Sereno
Sereno
 Wind from Nord-Nord-Est
Vento: Nord-Nord-Est 13 km/h
Temperatura: 26°C
Punto di Rugiada: 20°C
Umidità: 70%
Barometro: 1018 hPa
Condizioni: Sereno
Visibilità: superiore a 10 km
2019/09/20 12:50 LICG 201250Z 03007KT CAVOK 26/20 Q1018